sensor_id;sensor_type;location;lat;lon;timestamp;P1;durP1;ratioP1;P2;durP2;ratioP2
67429;SDS011;54298;52.076;5.264;2023-06-14T00:01:18;3.7;;;2.1;;
67429;SDS011;54298;52.076;5.264;2023-06-14T00:02:54;3.6;;;1.9;;
67429;SDS011;54298;52.076;5.264;2023-06-14T00:06:07;4.8;;;1.9;;
67429;SDS011;54298;52.076;5.264;2023-06-14T00:07:43;6.1;;;1.9;;
67429;SDS011;54298;52.076;5.264;2023-06-14T00:09:19;7.9;;;1.6;;
67429;SDS011;54298;52.076;5.264;2023-06-14T00:12:31;4.91;;;1.9;;
67429;SDS011;54298;52.076;5.264;2023-06-14T00:14:07;4.7;;;1.8;;
67429;SDS011;54298;52.076;5.264;2023-06-14T00:15:44;6.2;;;1.9;;
67429;SDS011;54298;52.076;5.264;2023-06-14T00:18:57;4.61;;;2.1;;
67429;SDS011;54298;52.076;5.264;2023-06-14T00:20:33;5.6;;;2.4;;
67429;SDS011;54298;52.076;5.264;2023-06-14T00:22:09;4.7;;;1.6;;
67429;SDS011;54298;52.076;5.264;2023-06-14T00:23:45;5.11;;;2.21;;
67429;SDS011;54298;52.076;5.264;2023-06-14T00:26:59;3.7;;;2.0;;
67429;SDS011;54298;52.076;5.264;2023-06-14T00:28:35;4.3;;;1.9;;
67429;SDS011;54298;52.076;5.264;2023-06-14T00:30:11;4.5;;;1.8;;
67429;SDS011;54298;52.076;5.264;2023-06-14T00:33:24;8.2;;;1.9;;
67429;SDS011;54298;52.076;5.264;2023-06-14T00:35:00;6.2;;;2.1;;
67429;SDS011;54298;52.076;5.264;2023-06-14T00:36:36;4.8;;;2.0;;
67429;SDS011;54298;52.076;5.264;2023-06-14T00:39:49;6.5;;;2.6;;
67429;SDS011;54298;52.076;5.264;2023-06-14T00:41:25;3.7;;;1.9;;
67429;SDS011;54298;52.076;5.264;2023-06-14T00:43:01;4.7;;;1.8;;
67429;SDS011;54298;52.076;5.264;2023-06-14T00:44:37;7.4;;;1.9;;
67429;SDS011;54298;52.076;5.264;2023-06-14T00:47:49;7.4;;;1.9;;
67429;SDS011;54298;52.076;5.264;2023-06-14T00:49:28;4.61;;;1.8;;
67429;SDS011;54298;52.076;5.264;2023-06-14T00:51:05;6.0;;;2.21;;
67429;SDS011;54298;52.076;5.264;2023-06-14T00:54:18;4.7;;;1.7;;
67429;SDS011;54298;52.076;5.264;2023-06-14T00:55:54;9.21;;;1.8;;
67429;SDS011;54298;52.076;5.264;2023-06-14T00:57:30;4.7;;;1.8;;
67429;SDS011;54298;52.076;5.264;2023-06-14T01:00:43;4.1;;;2.0;;
67429;SDS011;54298;52.076;5.264;2023-06-14T01:02:19;5.6;;;2.6;;
67429;SDS011;54298;52.076;5.264;2023-06-14T01:03:55;4.7;;;2.0;;
67429;SDS011;54298;52.076;5.264;2023-06-14T01:05:31;5.0;;;2.0;;
67429;SDS011;54298;52.076;5.264;2023-06-14T01:08:57;5.0;;;2.0;;
67429;SDS011;54298;52.076;5.264;2023-06-14T01:10:45;4.3;;;1.8;;
67429;SDS011;54298;52.076;5.264;2023-06-14T01:12:39;5.4;;;2.21;;
67429;SDS011;54298;52.076;5.264;2023-06-14T01:14:24;5.5;;;2.1;;
67429;SDS011;54298;52.076;5.264;2023-06-14T01:16:03;4.61;;;1.9;;
67429;SDS011;54298;52.076;5.264;2023-06-14T01:19:20;10.5;;;2.1;;
67429;SDS011;54298;52.076;5.264;2023-06-14T01:20:58;5.0;;;1.9;;
67429;SDS011;54298;52.076;5.264;2023-06-14T01:22:35;5.6;;;2.1;;
67429;SDS011;54298;52.076;5.264;2023-06-14T01:25:47;4.41;;;2.0;;
67429;SDS011;54298;52.076;5.264;2023-06-14T01:27:24;4.5;;;2.0;;
67429;SDS011;54298;52.076;5.264;2023-06-14T01:29:01;3.5;;;1.8;;
67429;SDS011;54298;52.076;5.264;2023-06-14T01:30:38;6.2;;;1.8;;
67429;SDS011;54298;52.076;5.264;2023-06-14T01:33:53;5.4;;;2.1;;
67429;SDS011;54298;52.076;5.264;2023-06-14T01:35:29;3.2;;;1.6;;
67429;SDS011;54298;52.076;5.264;2023-06-14T01:37:05;4.8;;;2.1;;
67429;SDS011;54298;52.076;5.264;2023-06-14T01:40:20;8.71;;;2.1;;
67429;SDS011;54298;52.076;5.264;2023-06-14T01:41:57;5.9;;;2.1;;
67429;SDS011;54298;52.076;5.264;2023-06-14T01:43:35;4.1;;;1.8;;
67429;SDS011;54298;52.076;5.264;2023-06-14T01:46:47;7.0;;;2.1;;
67429;SDS011;54298;52.076;5.264;2023-06-14T01:48:25;7.0;;;2.1;;
67429;SDS011;54298;52.076;5.264;2023-06-14T01:50:01;5.3;;;1.9;;
67429;SDS011;54298;52.076;5.264;2023-06-14T01:51:38;4.41;;;2.1;;
67429;SDS011;54298;52.076;5.264;2023-06-14T01:54:52;4.2;;;1.8;;
67429;SDS011;54298;52.076;5.264;2023-06-14T01:56:28;8.31;;;2.21;;
67429;SDS011;54298;52.076;5.264;2023-06-14T01:58:04;4.8;;;1.8;;
67429;SDS011;54298;52.076;5.264;2023-06-14T02:01:16;4.91;;;2.1;;
67429;SDS011;54298;52.076;5.264;2023-06-14T02:02:52;7.4;;;2.1;;
67429;SDS011;54298;52.076;5.264;2023-06-14T02:04:29;4.5;;;1.7;;
67429;SDS011;54298;52.076;5.264;2023-06-14T02:07:41;6.3;;;2.0;;
67429;SDS011;54298;52.076;5.264;2023-06-14T02:09:17;4.5;;;2.0;;
67429;SDS011;54298;52.076;5.264;2023-06-14T02:10:53;5.8;;;1.9;;
67429;SDS011;54298;52.076;5.264;2023-06-14T02:12:29;7.3;;;2.31;;
67429;SDS011;54298;52.076;5.264;2023-06-14T02:15:42;6.4;;;2.1;;
67429;SDS011;54298;52.076;5.264;2023-06-14T02:17:18;6.5;;;2.1;;
67429;SDS011;54298;52.076;5.264;2023-06-14T02:18:54;7.6;;;2.21;;
67429;SDS011;54298;52.076;5.264;2023-06-14T02:22:06;3.9;;;2.0;;
67429;SDS011;54298;52.076;5.264;2023-06-14T02:23:42;12.3;;;2.7;;
67429;SDS011;54298;52.076;5.264;2023-06-14T02:25:18;3.4;;;2.0;;
67429;SDS011;54298;52.076;5.264;2023-06-14T02:28:31;4.0;;;1.8;;
67429;SDS011;54298;52.076;5.264;2023-06-14T02:30:07;7.9;;;2.21;;
67429;SDS011;54298;52.076;5.264;2023-06-14T02:31:44;5.0;;;1.7;;
67429;SDS011;54298;52.076;5.264;2023-06-14T02:34:57;7.2;;;2.21;;
67429;SDS011;54298;52.076;5.264;2023-06-14T02:36:33;3.6;;;1.9;;
67429;SDS011;54298;52.076;5.264;2023-06-14T02:38:10;3.7;;;1.8;;
67429;SDS011;54298;52.076;5.264;2023-06-14T02:39:46;4.61;;;2.0;;
67429;SDS011;54298;52.076;5.264;2023-06-14T02:42:58;7.7;;;2.1;;
67429;SDS011;54298;52.076;5.264;2023-06-14T02:44:34;7.0;;;2.1;;
67429;SDS011;54298;52.076;5.264;2023-06-14T02:49:23;5.2;;;2.1;;
67429;SDS011;54298;52.076;5.264;2023-06-14T02:50:59;5.8;;;1.8;;
67429;SDS011;54298;52.076;5.264;2023-06-14T02:52:35;7.7;;;2.0;;
67429;SDS011;54298;52.076;5.264;2023-06-14T02:55:47;5.8;;;2.4;;
67429;SDS011;54298;52.076;5.264;2023-06-14T02:57:23;5.7;;;2.1;;
67429;SDS011;54298;52.076;5.264;2023-06-14T02:59:00;6.3;;;1.9;;
67429;SDS011;54298;52.076;5.264;2023-06-14T03:00:36;3.8;;;2.21;;
67429;SDS011;54298;52.076;5.264;2023-06-14T03:03:48;3.3;;;2.0;;
67429;SDS011;54298;52.076;5.264;2023-06-14T03:05:24;4.0;;;2.21;;
67429;SDS011;54298;52.076;5.264;2023-06-14T03:07:00;6.0;;;1.9;;
67429;SDS011;54298;52.076;5.264;2023-06-14T03:10:13;4.5;;;2.0;;
67429;SDS011;54298;52.076;5.264;2023-06-14T03:11:49;5.2;;;2.1;;
67429;SDS011;54298;52.076;5.264;2023-06-14T03:13:25;4.61;;;1.9;;
67429;SDS011;54298;52.076;5.264;2023-06-14T03:16:38;5.7;;;2.0;;
67429;SDS011;54298;52.076;5.264;2023-06-14T03:18:14;10.21;;;2.5;;
67429;SDS011;54298;52.076;5.264;2023-06-14T03:19:50;3.9;;;2.0;;
67429;SDS011;54298;52.076;5.264;2023-06-14T03:23:03;9.5;;;2.31;;
67429;SDS011;54298;52.076;5.264;2023-06-14T03:24:39;5.9;;;2.21;;
67429;SDS011;54298;52.076;5.264;2023-06-14T03:26:15;4.41;;;2.0;;
67429;SDS011;54298;52.076;5.264;2023-06-14T03:27:51;4.41;;;2.21;;
67429;SDS011;54298;52.076;5.264;2023-06-14T03:31:03;4.7;;;2.1;;
67429;SDS011;54298;52.076;5.264;2023-06-14T03:32:39;3.5;;;2.0;;
67429;SDS011;54298;52.076;5.264;2023-06-14T03:34:16;4.91;;;2.1;;
67429;SDS011;54298;52.076;5.264;2023-06-14T03:37:28;4.41;;;2.21;;
67429;SDS011;54298;52.076;5.264;2023-06-14T03:39:04;6.9;;;2.31;;
67429;SDS011;54298;52.076;5.264;2023-06-14T03:40:40;4.91;;;2.31;;
67429;SDS011;54298;52.076;5.264;2023-06-14T03:43:53;7.2;;;2.1;;
67429;SDS011;54298;52.076;5.264;2023-06-14T03:45:29;4.8;;;2.7;;
67429;SDS011;54298;52.076;5.264;2023-06-14T03:47:05;4.41;;;1.9;;
67429;SDS011;54298;52.076;5.264;2023-06-14T03:48:41;5.2;;;2.5;;
67429;SDS011;54298;52.076;5.264;2023-06-14T03:51:53;5.11;;;2.31;;
67429;SDS011;54298;52.076;5.264;2023-06-14T03:53:29;6.0;;;2.4;;
67429;SDS011;54298;52.076;5.264;2023-06-14T03:55:06;4.7;;;2.21;;
67429;SDS011;54298;52.076;5.264;2023-06-14T03:58:18;5.3;;;2.31;;
67429;SDS011;54298;52.076;5.264;2023-06-14T03:59:54;5.4;;;2.4;;
67429;SDS011;54298;52.076;5.264;2023-06-14T04:01:30;7.1;;;2.31;;
67429;SDS011;54298;52.076;5.264;2023-06-14T04:04:42;6.8;;;2.6;;
67429;SDS011;54298;52.076;5.264;2023-06-14T04:06:19;5.9;;;2.5;;
67429;SDS011;54298;52.076;5.264;2023-06-14T04:07:55;5.5;;;2.21;;
67429;SDS011;54298;52.076;5.264;2023-06-14T04:11:07;10.5;;;2.4;;
67429;SDS011;54298;52.076;5.264;2023-06-14T04:12:43;8.2;;;2.6;;
67429;SDS011;54298;52.076;5.264;2023-06-14T04:14:19;5.2;;;2.21;;
67429;SDS011;54298;52.076;5.264;2023-06-14T04:15:55;3.6;;;2.21;;
67429;SDS011;54298;52.076;5.264;2023-06-14T04:19:08;6.9;;;2.5;;
67429;SDS011;54298;52.076;5.264;2023-06-14T04:20:44;4.8;;;2.1;;
67429;SDS011;54298;52.076;5.264;2023-06-14T04:22:20;7.6;;;2.21;;
67429;SDS011;54298;52.076;5.264;2023-06-14T04:25:32;5.6;;;2.0;;
67429;SDS011;54298;52.076;5.264;2023-06-14T04:27:08;8.9;;;2.6;;
67429;SDS011;54298;52.076;5.264;2023-06-14T04:28:45;3.0;;;1.8;;
67429;SDS011;54298;52.076;5.264;2023-06-14T04:31:57;3.2;;;1.7;;
67429;SDS011;54298;52.076;5.264;2023-06-14T04:33:33;4.5;;;2.0;;
67429;SDS011;54298;52.076;5.264;2023-06-14T04:35:09;4.7;;;2.0;;
67429;SDS011;54298;52.076;5.264;2023-06-14T04:38:21;4.0;;;2.1;;
67429;SDS011;54298;52.076;5.264;2023-06-14T04:39:58;5.2;;;2.31;;
67429;SDS011;54298;52.076;5.264;2023-06-14T04:41:34;5.9;;;1.9;;
67429;SDS011;54298;52.076;5.264;2023-06-14T04:43:10;5.4;;;2.21;;
67429;SDS011;54298;52.076;5.264;2023-06-14T04:46:22;5.5;;;2.31;;
67429;SDS011;54298;52.076;5.264;2023-06-14T04:47:58;6.1;;;2.21;;
67429;SDS011;54298;52.076;5.264;2023-06-14T04:49:34;7.7;;;2.1;;
67429;SDS011;54298;52.076;5.264;2023-06-14T04:52:47;3.9;;;2.21;;
67429;SDS011;54298;52.076;5.264;2023-06-14T04:54:23;5.8;;;1.8;;
67429;SDS011;54298;52.076;5.264;2023-06-14T04:55:59;3.4;;;2.1;;
67429;SDS011;54298;52.076;5.264;2023-06-14T04:59:11;3.7;;;2.0;;
67429;SDS011;54298;52.076;5.264;2023-06-14T05:00:47;6.3;;;2.7;;
67429;SDS011;54298;52.076;5.264;2023-06-14T05:02:24;2.5;;;1.8;;
67429;SDS011;54298;52.076;5.264;2023-06-14T05:04:01;13.1;;;2.4;;
67429;SDS011;54298;52.076;5.264;2023-06-14T05:07:13;8.4;;;2.21;;
67429;SDS011;54298;52.076;5.264;2023-06-14T05:08:49;3.7;;;2.0;;
67429;SDS011;54298;52.076;5.264;2023-06-14T05:10:25;3.1;;;1.9;;
67429;SDS011;54298;52.076;5.264;2023-06-14T05:13:37;6.5;;;2.8;;
67429;SDS011;54298;52.076;5.264;2023-06-14T05:15:14;7.4;;;2.31;;
67429;SDS011;54298;52.076;5.264;2023-06-14T05:16:50;6.8;;;2.4;;
67429;SDS011;54298;52.076;5.264;2023-06-14T05:20:02;3.9;;;1.6;;
67429;SDS011;54298;52.076;5.264;2023-06-14T05:21:38;7.5;;;1.8;;
67429;SDS011;54298;52.076;5.264;2023-06-14T05:23:14;7.0;;;1.9;;
67429;SDS011;54298;52.076;5.264;2023-06-14T05:26:26;3.3;;;1.9;;
67429;SDS011;54298;52.076;5.264;2023-06-14T05:28:02;5.0;;;2.31;;
67429;SDS011;54298;52.076;5.264;2023-06-14T05:29:39;8.81;;;2.4;;
67429;SDS011;54298;52.076;5.264;2023-06-14T05:31:15;4.91;;;2.1;;
67429;SDS011;54298;52.076;5.264;2023-06-14T05:34:27;5.7;;;2.1;;
67429;SDS011;54298;52.076;5.264;2023-06-14T05:36:03;7.0;;;2.4;;
67429;SDS011;54298;52.076;5.264;2023-06-14T05:37:39;5.0;;;2.0;;
67429;SDS011;54298;52.076;5.264;2023-06-14T05:40:52;7.2;;;2.0;;
67429;SDS011;54298;52.076;5.264;2023-06-14T05:42:28;6.3;;;2.21;;
67429;SDS011;54298;52.076;5.264;2023-06-14T05:44:04;4.2;;;2.0;;
67429;SDS011;54298;52.076;5.264;2023-06-14T05:47:16;4.5;;;1.8;;
67429;SDS011;54298;52.076;5.264;2023-06-14T05:48:52;8.0;;;2.1;;
67429;SDS011;54298;52.076;5.264;2023-06-14T05:50:31;4.7;;;2.0;;
67429;SDS011;54298;52.076;5.264;2023-06-14T05:52:07;10.4;;;2.1;;
67429;SDS011;54298;52.076;5.264;2023-06-14T05:55:20;6.3;;;2.31;;
67429;SDS011;54298;52.076;5.264;2023-06-14T05:56:56;3.2;;;1.9;;
67429;SDS011;54298;52.076;5.264;2023-06-14T05:58:32;4.61;;;1.9;;
67429;SDS011;54298;52.076;5.264;2023-06-14T06:01:46;4.8;;;1.8;;
67429;SDS011;54298;52.076;5.264;2023-06-14T06:03:22;10.6;;;2.7;;
67429;SDS011;54298;52.076;5.264;2023-06-14T06:04:58;6.0;;;2.21;;
67429;SDS011;54298;52.076;5.264;2023-06-14T06:08:10;3.2;;;1.7;;
67429;SDS011;54298;52.076;5.264;2023-06-14T06:09:46;3.6;;;2.0;;
67429;SDS011;54298;52.076;5.264;2023-06-14T06:11:22;8.9;;;2.4;;
67429;SDS011;54298;52.076;5.264;2023-06-14T06:14:35;10.21;;;2.6;;
67429;SDS011;54298;52.076;5.264;2023-06-14T06:16:11;4.41;;;2.0;;
67429;SDS011;54298;52.076;5.264;2023-06-14T06:17:47;4.3;;;1.9;;
67429;SDS011;54298;52.076;5.264;2023-06-14T06:19:23;5.2;;;2.31;;
67429;SDS011;54298;52.076;5.264;2023-06-14T06:22:35;5.7;;;2.0;;
67429;SDS011;54298;52.076;5.264;2023-06-14T06:24:11;6.2;;;2.5;;
67429;SDS011;54298;52.076;5.264;2023-06-14T06:25:48;5.2;;;2.1;;
67429;SDS011;54298;52.076;5.264;2023-06-14T06:29:00;5.2;;;2.0;;
67429;SDS011;54298;52.076;5.264;2023-06-14T06:30:36;6.8;;;2.5;;
67429;SDS011;54298;52.076;5.264;2023-06-14T06:32:12;6.8;;;2.21;;
67429;SDS011;54298;52.076;5.264;2023-06-14T06:35:25;8.31;;;2.0;;
67429;SDS011;54298;52.076;5.264;2023-06-14T06:37:02;8.81;;;2.1;;
67429;SDS011;54298;52.076;5.264;2023-06-14T06:38:38;6.8;;;2.21;;
67429;SDS011;54298;52.076;5.264;2023-06-14T06:40:14;4.91;;;2.0;;
67429;SDS011;54298;52.076;5.264;2023-06-14T06:43:26;18.91;;;3.2;;
67429;SDS011;54298;52.076;5.264;2023-06-14T06:45:02;4.8;;;2.0;;
67429;SDS011;54298;52.076;5.264;2023-06-14T06:46:39;7.0;;;2.1;;
67429;SDS011;54298;52.076;5.264;2023-06-14T06:49:52;7.9;;;2.21;;
67429;SDS011;54298;52.076;5.264;2023-06-14T06:51:28;4.7;;;2.0;;
67429;SDS011;54298;52.076;5.264;2023-06-14T06:53:04;7.8;;;3.2;;
67429;SDS011;54298;52.076;5.264;2023-06-14T06:56:16;5.8;;;2.1;;
67429;SDS011;54298;52.076;5.264;2023-06-14T06:57:52;5.4;;;2.21;;
67429;SDS011;54298;52.076;5.264;2023-06-14T06:59:28;8.31;;;2.5;;
67429;SDS011;54298;52.076;5.264;2023-06-14T07:02:41;5.5;;;2.21;;
67429;SDS011;54298;52.076;5.264;2023-06-14T07:04:17;8.31;;;1.9;;
67429;SDS011;54298;52.076;5.264;2023-06-14T07:05:53;71.3;;;5.11;;
67429;SDS011;54298;52.076;5.264;2023-06-14T07:07:29;6.3;;;2.5;;
67429;SDS011;54298;52.076;5.264;2023-06-14T07:10:41;7.1;;;2.1;;
67429;SDS011;54298;52.076;5.264;2023-06-14T07:12:18;4.2;;;1.7;;
67429;SDS011;54298;52.076;5.264;2023-06-14T07:13:54;4.0;;;1.8;;
67429;SDS011;54298;52.076;5.264;2023-06-14T07:17:06;5.4;;;1.9;;
67429;SDS011;54298;52.076;5.264;2023-06-14T07:18:42;7.4;;;1.8;;
67429;SDS011;54298;52.076;5.264;2023-06-14T07:20:18;5.5;;;1.9;;
67429;SDS011;54298;52.076;5.264;2023-06-14T07:23:31;4.1;;;1.6;;
67429;SDS011;54298;52.076;5.264;2023-06-14T07:25:07;5.4;;;1.7;;
67429;SDS011;54298;52.076;5.264;2023-06-14T07:26:44;6.2;;;2.21;;
67429;SDS011;54298;52.076;5.264;2023-06-14T07:28:20;3.0;;;1.7;;
67429;SDS011;54298;52.076;5.264;2023-06-14T07:31:32;4.2;;;1.7;;
67429;SDS011;54298;52.076;5.264;2023-06-14T07:33:08;6.1;;;1.9;;
67429;SDS011;54298;52.076;5.264;2023-06-14T07:34:44;6.6;;;1.8;;
67429;SDS011;54298;52.076;5.264;2023-06-14T07:37:58;2.6;;;1.5;;
67429;SDS011;54298;52.076;5.264;2023-06-14T07:39:34;3.7;;;1.6;;
67429;SDS011;54298;52.076;5.264;2023-06-14T07:41:10;2.6;;;1.5;;
67429;SDS011;54298;52.076;5.264;2023-06-14T07:44:22;10.4;;;1.7;;
67429;SDS011;54298;52.076;5.264;2023-06-14T07:45:58;2.9;;;1.6;;
67429;SDS011;54298;52.076;5.264;2023-06-14T07:47:35;3.5;;;1.6;;
67429;SDS011;54298;52.076;5.264;2023-06-14T07:50:47;4.91;;;1.6;;
67429;SDS011;54298;52.076;5.264;2023-06-14T07:52:23;3.7;;;1.6;;
67429;SDS011;54298;52.076;5.264;2023-06-14T07:53:59;9.1;;;1.9;;
67429;SDS011;54298;52.076;5.264;2023-06-14T07:55:35;4.5;;;1.5;;
67429;SDS011;54298;52.076;5.264;2023-06-14T07:58:47;3.2;;;1.7;;
67429;SDS011;54298;52.076;5.264;2023-06-14T08:00:23;2.5;;;1.7;;
67429;SDS011;54298;52.076;5.264;2023-06-14T08:02:00;6.4;;;1.7;;
67429;SDS011;54298;52.076;5.264;2023-06-14T08:05:12;3.3;;;1.8;;
67429;SDS011;54298;52.076;5.264;2023-06-14T08:06:49;6.3;;;1.9;;
67429;SDS011;54298;52.076;5.264;2023-06-14T08:08:25;5.0;;;1.6;;
67429;SDS011;54298;52.076;5.264;2023-06-14T08:11:37;4.0;;;1.4;;
67429;SDS011;54298;52.076;5.264;2023-06-14T08:13:13;3.8;;;1.5;;
67429;SDS011;54298;52.076;5.264;2023-06-14T08:14:50;6.2;;;1.6;;
67429;SDS011;54298;52.076;5.264;2023-06-14T08:16:26;8.5;;;1.6;;
67429;SDS011;54298;52.076;5.264;2023-06-14T08:19:38;4.0;;;1.6;;
67429;SDS011;54298;52.076;5.264;2023-06-14T08:21:14;5.8;;;1.5;;
67429;SDS011;54298;52.076;5.264;2023-06-14T08:22:50;3.8;;;1.5;;
67429;SDS011;54298;52.076;5.264;2023-06-14T08:26:02;4.41;;;1.4;;
67429;SDS011;54298;52.076;5.264;2023-06-14T08:27:40;7.2;;;1.5;;
67429;SDS011;54298;52.076;5.264;2023-06-14T08:29:16;2.31;;;1.3;;
67429;SDS011;54298;52.076;5.264;2023-06-14T08:32:28;3.8;;;1.5;;
67429;SDS011;54298;52.076;5.264;2023-06-14T08:34:04;6.1;;;1.4;;
67429;SDS011;54298;52.076;5.264;2023-06-14T08:35:40;3.1;;;1.4;;
67429;SDS011;54298;52.076;5.264;2023-06-14T08:38:53;5.5;;;1.4;;
67429;SDS011;54298;52.076;5.264;2023-06-14T08:40:29;4.91;;;1.4;;
67429;SDS011;54298;52.076;5.264;2023-06-14T08:42:07;4.1;;;1.11;;
67429;SDS011;54298;52.076;5.264;2023-06-14T08:45:21;4.91;;;1.3;;
67429;SDS011;54298;52.076;5.264;2023-06-14T08:47:00;3.2;;;1.2;;
67429;SDS011;54298;52.076;5.264;2023-06-14T08:48:37;5.2;;;1.11;;
67429;SDS011;54298;52.076;5.264;2023-06-14T08:50:14;2.9;;;1.5;;
67429;SDS011;54298;52.076;5.264;2023-06-14T08:53:34;3.0;;;1.2;;
67429;SDS011;54298;52.076;5.264;2023-06-14T08:55:13;6.2;;;0.9;;
67429;SDS011;54298;52.076;5.264;2023-06-14T08:56:50;8.71;;;1.4;;
67429;SDS011;54298;52.076;5.264;2023-06-14T08:58:26;4.61;;;1.3;;
67429;SDS011;54298;52.076;5.264;2023-06-14T09:01:41;5.8;;;1.3;;
67429;SDS011;54298;52.076;5.264;2023-06-14T09:03:17;4.2;;;1.2;;
67429;SDS011;54298;52.076;5.264;2023-06-14T09:04:54;2.5;;;1.0;;
67429;SDS011;54298;52.076;5.264;2023-06-14T09:08:06;5.8;;;1.11;;
67429;SDS011;54298;52.076;5.264;2023-06-14T09:09:42;6.1;;;1.2;;
67429;SDS011;54298;52.076;5.264;2023-06-14T09:11:19;2.21;;;0.8;;
67429;SDS011;54298;52.076;5.264;2023-06-14T09:12:55;3.5;;;1.11;;
67429;SDS011;54298;52.076;5.264;2023-06-14T09:16:09;7.6;;;1.0;;
67429;SDS011;54298;52.076;5.264;2023-06-14T09:17:46;5.2;;;0.9;;
67429;SDS011;54298;52.076;5.264;2023-06-14T09:19:22;2.9;;;0.9;;
67429;SDS011;54298;52.076;5.264;2023-06-14T09:22:35;3.6;;;1.11;;
67429;SDS011;54298;52.076;5.264;2023-06-14T09:24:13;3.5;;;1.11;;
67429;SDS011;54298;52.076;5.264;2023-06-14T09:25:50;4.0;;;0.8;;
67429;SDS011;54298;52.076;5.264;2023-06-14T09:29:04;5.3;;;1.3;;
67429;SDS011;54298;52.076;5.264;2023-06-14T09:30:41;8.2;;;1.2;;
67429;SDS011;54298;52.076;5.264;2023-06-14T09:32:17;2.31;;;1.0;;
67429;SDS011;54298;52.076;5.264;2023-06-14T09:33:53;2.6;;;1.0;;
67429;SDS011;54298;52.076;5.264;2023-06-14T09:37:06;4.91;;;1.2;;
67429;SDS011;54298;52.076;5.264;2023-06-14T09:38:46;2.6;;;0.9;;
67429;SDS011;54298;52.076;5.264;2023-06-14T09:40:28;1.7;;;0.8;;
67429;SDS011;54298;52.076;5.264;2023-06-14T09:43:52;5.0;;;1.0;;
67429;SDS011;54298;52.076;5.264;2023-06-14T09:45:29;1.7;;;0.9;;
67429;SDS011;54298;52.076;5.264;2023-06-14T09:47:05;2.21;;;0.9;;
67429;SDS011;54298;52.076;5.264;2023-06-14T09:48:41;4.41;;;1.11;;
67429;SDS011;54298;52.076;5.264;2023-06-14T09:51:54;5.4;;;1.3;;
67429;SDS011;54298;52.076;5.264;2023-06-14T09:53:33;3.7;;;1.11;;
67429;SDS011;54298;52.076;5.264;2023-06-14T09:55:12;1.6;;;0.6;;
67429;SDS011;54298;52.076;5.264;2023-06-14T09:58:28;1.6;;;0.6;;
67429;SDS011;54298;52.076;5.264;2023-06-14T10:00:06;1.8;;;0.9;;
67429;SDS011;54298;52.076;5.264;2023-06-14T10:01:43;15.5;;;1.2;;
67429;SDS011;54298;52.076;5.264;2023-06-14T10:03:21;6.7;;;1.0;;
67429;SDS011;54298;52.076;5.264;2023-06-14T10:06:43;1.5;;;0.7;;
67429;SDS011;54298;52.076;5.264;2023-06-14T10:08:23;3.0;;;0.9;;
67429;SDS011;54298;52.076;5.264;2023-06-14T10:10:02;3.2;;;0.8;;
67429;SDS011;54298;52.076;5.264;2023-06-14T10:11:40;1.6;;;1.0;;
67429;SDS011;54298;52.076;5.264;2023-06-14T10:14:53;4.7;;;0.9;;
67429;SDS011;54298;52.076;5.264;2023-06-14T10:16:31;5.4;;;1.2;;
67429;SDS011;54298;52.076;5.264;2023-06-14T10:18:14;4.2;;;0.8;;
67429;SDS011;54298;52.076;5.264;2023-06-14T10:20:01;2.31;;;1.11;;
67429;SDS011;54298;52.076;5.264;2023-06-14T10:23:37;5.3;;;0.9;;
67429;SDS011;54298;52.076;5.264;2023-06-14T10:25:33;6.0;;;1.11;;
67429;SDS011;54298;52.076;5.264;2023-06-14T10:27:11;3.4;;;0.9;;
67429;SDS011;54298;52.076;5.264;2023-06-14T10:28:58;7.5;;;1.0;;
67429;SDS011;54298;52.076;5.264;2023-06-14T10:30:35;5.3;;;1.0;;
67429;SDS011;54298;52.076;5.264;2023-06-14T10:33:48;13.3;;;1.2;;
67429;SDS011;54298;52.076;5.264;2023-06-14T10:35:26;4.0;;;1.11;;
67429;SDS011;54298;52.076;5.264;2023-06-14T10:37:02;3.9;;;1.11;;
67429;SDS011;54298;52.076;5.264;2023-06-14T10:40:29;6.4;;;1.11;;
67429;SDS011;54298;52.076;5.264;2023-06-14T10:42:06;4.41;;;0.8;;
67429;SDS011;54298;52.076;5.264;2023-06-14T10:43:43;2.4;;;0.9;;
67429;SDS011;54298;52.076;5.264;2023-06-14T10:45:19;1.5;;;0.7;;
67429;SDS011;54298;52.076;5.264;2023-06-14T10:48:39;3.1;;;1.11;;
67429;SDS011;54298;52.076;5.264;2023-06-14T10:50:16;5.6;;;0.8;;
67429;SDS011;54298;52.076;5.264;2023-06-14T10:51:52;2.8;;;0.9;;
67429;SDS011;54298;52.076;5.264;2023-06-14T10:53:39;3.2;;;0.9;;
67429;SDS011;54298;52.076;5.264;2023-06-14T10:56:53;2.4;;;1.0;;
67429;SDS011;54298;52.076;5.264;2023-06-14T10:58:29;5.0;;;1.4;;
67429;SDS011;54298;52.076;5.264;2023-06-14T11:00:06;3.6;;;1.11;;
67429;SDS011;54298;52.076;5.264;2023-06-14T11:01:47;2.8;;;1.11;;
67429;SDS011;54298;52.076;5.264;2023-06-14T11:05:26;4.5;;;1.3;;
67429;SDS011;54298;52.076;5.264;2023-06-14T11:07:08;4.7;;;1.11;;
67429;SDS011;54298;52.076;5.264;2023-06-14T11:09:08;2.9;;;1.11;;
67429;SDS011;54298;52.076;5.264;2023-06-14T11:12:06;1.5;;;0.8;;
67429;SDS011;54298;52.076;5.264;2023-06-14T11:13:46;3.5;;;1.11;;
67429;SDS011;54298;52.076;5.264;2023-06-14T11:15:27;2.31;;;1.11;;
67429;SDS011;54298;52.076;5.264;2023-06-14T11:17:04;8.5;;;4.3;;
67429;SDS011;54298;52.076;5.264;2023-06-14T11:18:41;2.6;;;1.2;;
67429;SDS011;54298;52.076;5.264;2023-06-14T11:21:55;2.21;;;1.11;;
67429;SDS011;54298;52.076;5.264;2023-06-14T11:23:31;3.8;;;1.0;;
67429;SDS011;54298;52.076;5.264;2023-06-14T11:25:08;8.5;;;1.6;;
67429;SDS011;54298;52.076;5.264;2023-06-14T11:28:23;6.5;;;1.5;;
67429;SDS011;54298;52.076;5.264;2023-06-14T11:29:59;1.11;;;0.7;;
67429;SDS011;54298;52.076;5.264;2023-06-14T11:31:35;2.9;;;0.9;;
67429;SDS011;54298;52.076;5.264;2023-06-14T11:33:11;2.0;;;0.8;;
67429;SDS011;54298;52.076;5.264;2023-06-14T11:38:06;1.9;;;0.8;;
67429;SDS011;54298;52.076;5.264;2023-06-14T11:39:43;3.0;;;1.11;;
67429;SDS011;54298;52.076;5.264;2023-06-14T11:43:00;5.0;;;1.11;;
67429;SDS011;54298;52.076;5.264;2023-06-14T11:44:37;1.7;;;0.8;;
67429;SDS011;54298;52.076;5.264;2023-06-14T11:46:13;3.9;;;1.11;;
67429;SDS011;54298;52.076;5.264;2023-06-14T11:47:50;2.9;;;1.0;;
67429;SDS011;54298;52.076;5.264;2023-06-14T11:51:02;3.6;;;0.7;;
67429;SDS011;54298;52.076;5.264;2023-06-14T11:52:38;3.1;;;1.0;;
67429;SDS011;54298;52.076;5.264;2023-06-14T11:54:15;7.2;;;3.8;;
67429;SDS011;54298;52.076;5.264;2023-06-14T11:57:27;7.2;;;3.8;;
67429;SDS011;54298;52.076;5.264;2023-06-14T11:59:03;4.8;;;1.0;;
67429;SDS011;54298;52.076;5.264;2023-06-14T12:00:39;3.0;;;0.8;;
67429;SDS011;54298;52.076;5.264;2023-06-14T12:03:53;2.31;;;1.0;;
67429;SDS011;54298;52.076;5.264;2023-06-14T12:05:32;3.8;;;1.11;;
67429;SDS011;54298;52.076;5.264;2023-06-14T12:07:09;2.6;;;1.0;;
67429;SDS011;54298;52.076;5.264;2023-06-14T12:08:45;2.5;;;1.11;;
67429;SDS011;54298;52.076;5.264;2023-06-14T12:11:59;2.5;;;0.9;;
67429;SDS011;54298;52.076;5.264;2023-06-14T12:13:37;4.61;;;0.9;;
67429;SDS011;54298;52.076;5.264;2023-06-14T12:15:13;3.5;;;0.9;;
67429;SDS011;54298;52.076;5.264;2023-06-14T12:18:33;1.9;;;0.8;;
67429;SDS011;54298;52.076;5.264;2023-06-14T12:20:12;5.4;;;1.2;;
67429;SDS011;54298;52.076;5.264;2023-06-14T12:21:49;3.0;;;1.2;;
67429;SDS011;54298;52.076;5.264;2023-06-14T12:23:25;7.6;;;1.11;;
67429;SDS011;54298;52.076;5.264;2023-06-14T12:26:38;3.2;;;1.0;;
67429;SDS011;54298;52.076;5.264;2023-06-14T12:28:14;5.11;;;1.0;;
67429;SDS011;54298;52.076;5.264;2023-06-14T12:29:58;3.3;;;1.11;;
67429;SDS011;54298;52.076;5.264;2023-06-14T12:33:11;2.6;;;0.9;;
67429;SDS011;54298;52.076;5.264;2023-06-14T12:34:47;2.9;;;0.9;;
67429;SDS011;54298;52.076;5.264;2023-06-14T12:36:23;3.5;;;0.9;;
67429;SDS011;54298;52.076;5.264;2023-06-14T12:38:00;3.4;;;0.9;;
67429;SDS011;54298;52.076;5.264;2023-06-14T12:41:13;4.41;;;2.7;;
67429;SDS011;54298;52.076;5.264;2023-06-14T12:42:49;4.0;;;1.2;;
67429;SDS011;54298;52.076;5.264;2023-06-14T12:44:25;1.7;;;0.7;;
67429;SDS011;54298;52.076;5.264;2023-06-14T12:47:37;2.1;;;0.7;;
67429;SDS011;54298;52.076;5.264;2023-06-14T12:49:13;3.7;;;0.8;;
67429;SDS011;54298;52.076;5.264;2023-06-14T12:50:50;3.4;;;0.9;;
67429;SDS011;54298;52.076;5.264;2023-06-14T12:54:02;7.1;;;1.0;;
67429;SDS011;54298;52.076;5.264;2023-06-14T12:55:38;3.2;;;0.9;;
67429;SDS011;54298;52.076;5.264;2023-06-14T12:57:14;1.6;;;1.11;;
67429;SDS011;54298;52.076;5.264;2023-06-14T12:58:50;6.5;;;1.4;;